Prairie City, South Dakota
Current Conditions -  °F | °C
As of 1:53 PM on Thursday 23 Oct 2014 (Local Time) from KHEI Reporting Station
Clear Clear  
Wind Chill: 72°   Ceiling: Unl
Heat Index: 72°   Visibility: 10mi
Dew Point: 25°   Wind: 12mph
Humidity: 17%   Direction: 220°SW
Pressure: 29.86"   Gusts: NA
Location:  45.53°N, 102.81°W
Report Text: KHEI 231953Z AUTO 22010KT 10SM CLR 22/M04 A2986 RMK AO2 SLP110 T02221039
Loading
Personal Weather Stations






























Interactive Weather Map
Tropical Storm Tracking
New forecast layout! Learn more

10-Day Weather Forecast

Advertisements
Track Severe Weather on mobile